Anniston, Alabama
Current Conditions -  °F | °C
As of 6:53 AM on Friday 24 Oct 2014 (Local Time) from KANB Reporting Station
Clear Clear  
Wind Chill: 46°   Ceiling: Unl
Heat Index: 46°   Visibility: 10mi
Dew Point: 44°   Wind: 0mph
Humidity: 93%   Direction: NA
Pressure: 30.09"   Gusts: NA
Location:  33.66°N, 85.82°W
Report Text: KANB 241153Z AUTO 00000KT 10SM CLR 08/07 A3009 RMK AO2 SLP193 T00780067 10100 20078 51015
Loading
Personal Weather Stations






























Interactive Weather Map
Tropical Storm Tracking
New forecast layout! Learn more

10-Day Weather Forecast

Advertisements
Track Severe Weather on mobile